createdAt,value
2018-05-04T00:01:37.804Z,101370
2018-05-04T00:04:06.893Z,101373
2018-05-04T00:06:35.981Z,101357
2018-05-04T00:09:04.188Z,101359
2018-05-04T00:11:32.494Z,101365
2018-05-04T00:14:00.699Z,101359
2018-05-04T00:16:28.791Z,101363
2018-05-04T00:18:57.804Z,101367
2018-05-04T00:21:27.712Z,101367
2018-05-04T00:23:57.016Z,101375
2018-05-04T00:26:25.110Z,101361
2018-05-04T00:28:53.543Z,101361
2018-05-04T00:31:21.844Z,101356
2018-05-04T00:33:51.383Z,101350
2018-05-04T00:36:19.649Z,101358
2018-05-04T00:38:48.247Z,101359
2018-05-04T00:41:16.474Z,101365
2018-05-04T00:43:49.919Z,101366
2018-05-04T00:46:18.720Z,101364
2018-05-04T00:48:47.085Z,101370
2018-05-04T00:51:15.980Z,101370
2018-05-04T00:54:02.283Z,101364
2018-05-04T00:56:31.143Z,101364
2018-05-04T00:58:59.489Z,101362
2018-05-04T01:01:27.799Z,101376
2018-05-04T01:03:56.538Z,101375
2018-05-04T01:06:25.335Z,101388
2018-05-04T01:08:54.192Z,101381
2018-05-04T01:11:23.705Z,101384
2018-05-04T01:13:52.482Z,101392
2018-05-04T01:16:21.377Z,101383
2018-05-04T01:18:50.779Z,101378
2018-05-04T01:21:19.738Z,101382
2018-05-04T01:23:49.379Z,101380
2018-05-04T01:26:18.172Z,101397
2018-05-04T01:28:50.342Z,101391
2018-05-04T01:31:19.256Z,101398
2018-05-04T01:33:48.517Z,101398
2018-05-04T01:36:17.328Z,101397
2018-05-04T01:38:46.435Z,101401
2018-05-04T01:41:15.206Z,101409
2018-05-04T01:43:47.658Z,101413
2018-05-04T01:46:16.588Z,101407
2018-05-04T01:48:45.310Z,101417
2018-05-04T01:51:13.937Z,101419
2018-05-04T01:53:42.904Z,101423
2018-05-04T01:56:11.166Z,101401
2018-05-04T01:58:40.679Z,101413
2018-05-04T02:01:10.121Z,101423
2018-05-04T02:03:38.897Z,101417
2018-05-04T02:06:07.131Z,101422
2018-05-04T02:08:35.307Z,101422
2018-05-04T02:11:04.421Z,101424
2018-05-04T02:13:33.418Z,101427
2018-05-04T02:16:02.124Z,101420
2018-05-04T02:18:30.844Z,101424
2018-05-04T02:20:59.157Z,101423
2018-05-04T02:23:28.005Z,101421
2018-05-04T02:25:56.754Z,101416
2018-05-04T02:28:24.877Z,101419
2018-05-04T02:30:53.060Z,101426
2018-05-04T02:33:21.912Z,101419
2018-05-04T02:35:50.789Z,101420
2018-05-04T02:38:19.801Z,101422
2018-05-04T02:40:47.956Z,101421
2018-05-04T02:43:16.763Z,101416
2018-05-04T02:45:45.760Z,101423
2018-05-04T02:48:14.061Z,101408
2018-05-04T02:50:42.159Z,101401
2018-05-04T02:53:11.301Z,101411
2018-05-04T02:55:40.143Z,101408
2018-05-04T02:58:09.701Z,101402
2018-05-04T03:00:37.989Z,101404
2018-05-04T03:03:06.216Z,101403
2018-05-04T03:05:35.762Z,101412
2018-05-04T03:08:04.646Z,101408
2018-05-04T03:10:32.797Z,101408
2018-05-04T03:13:01.764Z,101395
2018-05-04T03:15:30.613Z,101379
2018-05-04T03:17:58.928Z,101380
2018-05-04T03:20:27.900Z,101386
2018-05-04T03:22:56.860Z,101381
2018-05-04T03:25:25.658Z,101373
2018-05-04T03:27:53.967Z,101378
2018-05-04T03:30:22.768Z,101372
2018-05-04T03:32:50.980Z,101376
2018-05-04T03:35:20.019Z,101377
2018-05-04T03:37:48.883Z,101370
2018-05-04T03:40:19.700Z,101375
2018-05-04T03:42:49.527Z,101380
2018-05-04T03:45:17.712Z,101380
2018-05-04T03:47:46.805Z,101375
2018-05-04T03:50:20.178Z,101372
2018-05-04T03:52:48.548Z,101373
2018-05-04T03:55:16.847Z,101372
2018-05-04T03:58:04.508Z,101380
2018-05-04T04:00:50.989Z,101374
2018-05-04T04:03:37.912Z,101383
2018-05-04T04:06:06.061Z,101378
2018-05-04T04:08:34.344Z,101381
2018-05-04T04:11:03.136Z,101386
2018-05-04T04:13:34.327Z,101389
2018-05-04T04:16:02.607Z,101388
2018-05-04T04:18:32.167Z,101390
2018-05-04T04:21:00.267Z,101377
2018-05-04T04:23:28.547Z,101380
2018-05-04T04:25:57.404Z,101378
2018-05-04T04:28:26.287Z,101387
2018-05-04T04:30:56.087Z,101390
2018-05-04T04:33:24.153Z,101402
2018-05-04T04:35:52.759Z,101397
2018-05-04T04:38:21.538Z,101403
2018-05-04T04:40:50.813Z,101401
2018-05-04T04:45:53.449Z,101414
2018-05-04T04:48:22.252Z,101418
2018-05-04T04:50:54.001Z,101422
2018-05-04T04:53:22.167Z,101424
2018-05-04T04:55:50.580Z,101428
2018-05-04T04:58:20.165Z,101432
2018-05-04T05:00:48.980Z,101438
2018-05-04T05:03:17.937Z,101436
2018-05-04T05:05:46.375Z,101437
2018-05-04T05:08:15.439Z,101432
2018-05-04T05:10:44.009Z,101432
2018-05-04T05:13:12.099Z,101427
2018-05-04T05:15:41.466Z,101433
2018-05-04T05:18:09.821Z,101440
2018-05-04T05:20:40.651Z,101446
2018-05-04T05:23:09.382Z,101443
2018-05-04T05:25:39.168Z,101455
2018-05-04T05:28:07.297Z,101451
2018-05-04T05:30:36.565Z,101452
2018-05-04T05:33:04.859Z,101458
2018-05-04T05:35:34.200Z,101459
2018-05-04T05:38:04.342Z,101461
2018-05-04T05:40:32.412Z,101454
2018-05-04T05:43:00.552Z,101456
2018-05-04T05:45:28.669Z,101457
2018-05-04T05:47:56.899Z,101456
2018-05-04T05:50:26.482Z,101460
2018-05-04T05:52:55.210Z,101458
2018-05-04T05:55:23.662Z,101456
2018-05-04T05:57:52.542Z,101462
2018-05-04T06:00:20.833Z,101468
2018-05-04T06:02:49.975Z,101472
2018-05-04T06:05:19.107Z,101470
2018-05-04T06:07:48.439Z,101475
2018-05-04T06:10:18.902Z,101475
2018-05-04T06:12:48.149Z,101478
2018-05-04T06:15:16.892Z,101462
2018-05-04T06:17:45.701Z,101469
2018-05-04T06:20:13.768Z,101469
2018-05-04T06:22:42.713Z,101464
2018-05-04T06:25:12.589Z,101467
2018-05-04T06:27:43.609Z,101463
2018-05-04T06:30:13.320Z,101463
2018-05-04T06:32:45.795Z,101469
2018-05-04T06:35:13.900Z,101470
2018-05-04T06:37:42.660Z,101468
2018-05-04T06:40:11.003Z,101464
2018-05-04T06:42:39.074Z,101473
2018-05-04T06:45:08.016Z,101475
2018-05-04T06:47:37.267Z,101491
2018-05-04T06:50:07.103Z,101480
2018-05-04T06:52:35.574Z,101476
2018-05-04T06:55:04.350Z,101477
2018-05-04T06:57:32.487Z,101481
2018-05-04T07:00:01.278Z,101486
2018-05-04T07:02:30.859Z,101488
2018-05-04T07:04:59.067Z,101484
2018-05-04T07:07:27.229Z,101494
2018-05-04T07:09:55.311Z,101489
2018-05-04T07:12:23.514Z,101489
2018-05-04T07:14:52.219Z,101487
2018-05-04T07:17:20.295Z,101489
2018-05-04T07:19:48.396Z,101488
2018-05-04T07:22:16.726Z,101491
2018-05-04T07:24:44.935Z,101486
2018-05-04T07:27:14.065Z,101492
2018-05-04T07:29:42.414Z,101479
2018-05-04T07:32:11.764Z,101485
2018-05-04T07:34:44.944Z,101485
2018-05-04T07:37:14.257Z,101469
2018-05-04T07:39:42.524Z,101488
2018-05-04T07:42:10.852Z,101468
2018-05-04T07:44:40.010Z,101484
2018-05-04T07:47:09.540Z,101477
2018-05-04T07:49:38.550Z,101465
2018-05-04T07:52:07.424Z,101475
2018-05-04T07:54:35.805Z,101481
2018-05-04T07:57:03.906Z,101485
2018-05-04T07:59:32.046Z,101481
2018-05-04T08:02:03.559Z,101480
2018-05-04T08:04:33.578Z,101490
2018-05-04T08:07:03.219Z,101483
2018-05-04T08:09:32.131Z,101477
2018-05-04T08:12:00.435Z,101479
2018-05-04T08:14:30.009Z,101473
2018-05-04T08:16:59.011Z,101478
2018-05-04T08:19:28.000Z,101478
2018-05-04T08:21:56.984Z,101488
2018-05-04T08:24:25.312Z,101491
2018-05-04T08:26:54.156Z,101476
2018-05-04T08:29:22.232Z,101486
2018-05-04T08:31:51.242Z,101484
2018-05-04T08:34:19.547Z,101479
2018-05-04T08:36:47.875Z,101489
2018-05-04T08:39:17.162Z,101496
2018-05-04T08:41:45.303Z,101498
2018-05-04T08:44:17.842Z,101501
2018-05-04T08:46:46.805Z,101497
2018-05-04T08:49:16.421Z,101494
2018-05-04T08:51:44.658Z,101485
2018-05-04T08:54:15.729Z,101488
2018-05-04T08:56:48.677Z,101491
2018-05-04T08:59:17.047Z,101485
2018-05-04T09:01:46.783Z,101479
2018-05-04T09:04:15.872Z,101479
2018-05-04T09:06:45.632Z,101489
2018-05-04T09:09:15.356Z,101485
2018-05-04T09:11:43.674Z,101483
2018-05-04T09:14:12.359Z,101484
2018-05-04T09:16:42.800Z,101484
2018-05-04T09:19:12.328Z,101484
2018-05-04T09:21:41.273Z,101479
2018-05-04T09:24:12.916Z,101481
2018-05-04T09:26:41.111Z,101479
2018-05-04T09:29:10.487Z,101472
2018-05-04T09:31:39.664Z,101477
2018-05-04T09:34:11.007Z,101475
2018-05-04T09:36:42.471Z,101476
2018-05-04T09:39:13.420Z,101463
2018-05-04T09:41:42.627Z,101463
2018-05-04T09:44:11.498Z,101461
2018-05-04T09:46:39.604Z,101470
2018-05-04T09:49:08.696Z,101469
2018-05-04T09:51:38.101Z,101469
2018-05-04T09:54:06.244Z,101473
2018-05-04T09:56:39.281Z,101466
2018-05-04T09:59:08.815Z,101464
2018-05-04T10:01:38.832Z,101458
2018-05-04T10:04:07.115Z,101467
2018-05-04T10:06:35.924Z,101461
2018-05-04T10:09:06.245Z,101456
2018-05-04T10:11:35.026Z,101464
2018-05-04T10:14:05.560Z,101451
2018-05-04T10:16:35.035Z,101460
2018-05-04T10:19:03.860Z,101457
2018-05-04T10:21:33.076Z,101457
2018-05-04T10:24:01.937Z,101445
2018-05-04T10:26:30.625Z,101448
2018-05-04T10:28:58.837Z,101447
2018-05-04T10:31:30.986Z,101448
2018-05-04T10:34:01.291Z,101445
2018-05-04T10:36:30.170Z,101444
2018-05-04T10:38:59.002Z,101448
2018-05-04T10:41:27.848Z,101443
2018-05-04T10:43:55.971Z,101440
2018-05-04T10:46:24.055Z,101435
2018-05-04T10:48:52.880Z,101430
2018-05-04T10:51:21.612Z,101435
2018-05-04T10:53:49.807Z,101441
2018-05-04T10:56:19.002Z,101440
2018-05-04T10:58:47.903Z,101434
2018-05-04T11:01:15.982Z,101437
2018-05-04T11:03:46.747Z,101435
2018-05-04T11:06:15.960Z,101436
2018-05-04T11:08:44.203Z,101430
2018-05-04T11:11:12.493Z,101417
2018-05-04T11:13:40.580Z,101446
2018-05-04T11:16:12.946Z,101449
2018-05-04T11:18:41.956Z,101448
2018-05-04T11:21:10.056Z,101441
2018-05-04T11:23:38.956Z,101443
2018-05-04T11:26:08.354Z,101440
2018-05-04T11:28:36.511Z,101440
2018-05-04T11:31:04.825Z,101448
2018-05-04T11:33:37.061Z,101443
2018-05-04T11:36:05.321Z,101443
2018-05-04T11:38:33.592Z,101446
2018-05-04T11:41:01.831Z,101432
2018-05-04T11:43:30.080Z,101435
2018-05-04T11:45:58.947Z,101441
2018-05-04T11:48:27.113Z,101431
2018-05-04T11:50:55.840Z,101439
2018-05-04T11:53:24.744Z,101451
2018-05-04T11:55:52.826Z,101442
2018-05-04T11:58:20.920Z,101441
2018-05-04T12:00:49.007Z,101440
2018-05-04T12:03:17.141Z,101432
2018-05-04T12:05:45.302Z,101443
2018-05-04T12:08:15.049Z,101443
2018-05-04T12:10:43.216Z,101440
2018-05-04T12:13:12.115Z,101441
2018-05-04T12:15:40.233Z,101450
2018-05-04T12:18:08.320Z,101451
2018-05-04T12:20:36.626Z,101456
2018-05-04T12:23:04.715Z,101456
2018-05-04T12:25:34.083Z,101452
2018-05-04T12:28:02.225Z,101470
2018-05-04T12:30:31.452Z,101460
2018-05-04T12:32:59.675Z,101467
2018-05-04T12:35:28.849Z,101459
2018-05-04T12:37:57.133Z,101451
2018-05-04T12:40:25.236Z,101464
2018-05-04T12:42:53.457Z,101465
2018-05-04T12:45:21.614Z,101460
2018-05-04T12:47:52.364Z,101459
2018-05-04T12:50:20.681Z,101456
2018-05-04T12:52:48.768Z,101468
2018-05-04T12:55:17.922Z,101464
2018-05-04T12:57:46.151Z,101469
2018-05-04T13:00:14.419Z,101465
2018-05-04T13:02:42.519Z,101479
2018-05-04T13:05:10.604Z,101459
2018-05-04T13:07:38.699Z,101459
2018-05-04T13:10:07.093Z,101468
2018-05-04T13:12:36.386Z,101474
2018-05-04T13:15:04.800Z,101464
2018-05-04T13:17:32.991Z,101472
2018-05-04T13:20:01.297Z,101475
2018-05-04T13:22:30.205Z,101461
2018-05-04T13:24:58.661Z,101456
2018-05-04T13:27:26.981Z,101459
2018-05-04T13:29:56.136Z,101453
2018-05-04T13:32:25.144Z,101438
2018-05-04T13:34:54.650Z,101463
2018-05-04T13:37:22.946Z,101449
2018-05-04T13:39:53.869Z,101449
2018-05-04T13:42:22.067Z,101453
2018-05-04T13:44:51.184Z,101454
2018-05-04T13:47:19.391Z,101450
2018-05-04T13:49:48.193Z,101456
2018-05-04T13:52:16.607Z,101457
2018-05-04T13:54:44.996Z,101451
2018-05-04T13:57:14.212Z,101458
2018-05-04T13:59:44.017Z,101452
2018-05-04T14:02:12.272Z,101450
2018-05-04T14:04:40.831Z,101456
2018-05-04T14:07:09.827Z,101450
2018-05-04T14:09:40.423Z,101453
2018-05-04T14:12:09.371Z,101462
2018-05-04T14:14:37.720Z,101450
2018-05-04T14:17:05.889Z,101456
2018-05-04T14:19:36.310Z,101451
2018-05-04T14:22:06.783Z,101453
2018-05-04T14:24:35.775Z,101451
2018-05-04T14:27:04.546Z,101446
2018-05-04T14:29:32.632Z,101441
2018-05-04T14:32:00.968Z,101447
2018-05-04T14:34:31.245Z,101441
2018-05-04T14:37:00.391Z,101442
2018-05-04T14:39:29.854Z,101449
2018-05-04T14:41:58.516Z,101435
2018-05-04T14:44:27.403Z,101438
2018-05-04T14:46:58.046Z,101439
2018-05-04T14:49:28.544Z,101443
2018-05-04T14:51:58.565Z,101441
2018-05-04T14:54:30.328Z,101437
2018-05-04T14:56:59.298Z,101441
2018-05-04T14:59:27.492Z,101443
2018-05-04T15:01:55.592Z,101448
2018-05-04T15:04:24.476Z,101447
2018-05-04T15:06:52.551Z,101443
2018-05-04T15:09:20.624Z,101450
2018-05-04T15:11:49.873Z,101451
2018-05-04T15:14:18.000Z,101449
2018-05-04T15:16:46.156Z,101459
2018-05-04T15:19:14.265Z,101446
2018-05-04T15:21:42.360Z,101448
2018-05-04T15:24:10.487Z,101449
2018-05-04T15:26:39.280Z,101454
2018-05-04T15:29:07.663Z,101441
2018-05-04T15:31:35.840Z,101440
2018-05-04T15:34:04.303Z,101448
2018-05-04T15:36:32.788Z,101446
2018-05-04T15:39:02.479Z,101445
2018-05-04T15:41:31.336Z,101444
2018-05-04T15:44:00.188Z,101449
2018-05-04T15:46:31.637Z,101454
2018-05-04T15:49:06.157Z,101445
2018-05-04T15:51:40.496Z,101438
2018-05-04T15:54:09.636Z,101437
2018-05-04T15:56:37.762Z,101443
2018-05-04T15:59:06.104Z,101437
2018-05-04T16:01:34.441Z,101440
2018-05-04T16:04:05.220Z,101442
2018-05-04T16:06:34.099Z,101447
2018-05-04T16:09:02.438Z,101444
2018-05-04T16:11:30.752Z,101438
2018-05-04T16:13:59.815Z,101439
2018-05-04T16:16:28.852Z,101444
2018-05-04T16:18:57.120Z,101459
2018-05-04T16:21:25.740Z,101436
2018-05-04T16:23:56.342Z,101441
2018-05-04T16:26:24.932Z,101428
2018-05-04T16:28:54.406Z,101443
2018-05-04T16:31:22.687Z,101448
2018-05-04T16:33:51.685Z,101447
2018-05-04T16:36:20.219Z,101435
2018-05-04T16:38:48.579Z,101445
2018-05-04T16:41:16.669Z,101442
2018-05-04T16:43:44.924Z,101437
2018-05-04T16:46:18.969Z,101455
2018-05-04T16:48:54.698Z,101442
2018-05-04T16:51:23.938Z,101447
2018-05-04T16:53:54.828Z,101448
2018-05-04T16:56:23.647Z,101453
2018-05-04T16:58:51.784Z,101459
2018-05-04T17:01:20.776Z,101457
2018-05-04T17:03:49.076Z,101457
2018-05-04T17:06:17.199Z,101449
2018-05-04T17:08:45.647Z,101457
2018-05-04T17:11:15.228Z,101459
2018-05-04T17:13:44.347Z,101468
2018-05-04T17:16:13.611Z,101463
2018-05-04T17:18:43.672Z,101459
2018-05-04T17:21:13.730Z,101469
2018-05-04T17:23:43.770Z,101467
2018-05-04T17:26:12.836Z,101462
2018-05-04T17:28:42.200Z,101464
2018-05-04T17:31:10.360Z,101467
2018-05-04T17:33:38.480Z,101467
2018-05-04T17:36:06.825Z,101464
2018-05-04T17:38:36.795Z,101469
2018-05-04T17:41:05.583Z,101475
2018-05-04T17:43:33.667Z,101476
2018-05-04T17:46:01.786Z,101474
2018-05-04T17:48:30.678Z,101471
2018-05-04T17:50:59.180Z,101463
2018-05-04T17:53:28.262Z,101485
2018-05-04T17:55:57.068Z,101490
2018-05-04T17:58:25.912Z,101496
2018-05-04T18:00:54.788Z,101489
2018-05-04T18:03:22.972Z,101498
2018-05-04T18:05:51.069Z,101487
2018-05-04T18:08:19.200Z,101495
2018-05-04T18:10:47.527Z,101500
2018-05-04T18:13:17.389Z,101500
2018-05-04T18:15:48.783Z,101497
2018-05-04T18:18:17.742Z,101496
2018-05-04T18:20:46.361Z,101499
2018-05-04T18:23:15.878Z,101492
2018-05-04T18:25:44.641Z,101494
2018-05-04T18:28:14.069Z,101502
2018-05-04T18:30:43.640Z,101496
2018-05-04T18:33:11.800Z,101509
2018-05-04T18:35:41.280Z,101510
2018-05-04T18:38:12.628Z,101512
2018-05-04T18:40:41.740Z,101518
2018-05-04T18:43:10.593Z,101515
2018-05-04T18:45:41.412Z,101514
2018-05-04T18:48:10.186Z,101520
2018-05-04T18:50:39.024Z,101531
2018-05-04T18:53:10.270Z,101531
2018-05-04T18:55:41.532Z,101532
2018-05-04T18:58:12.114Z,101532
2018-05-04T19:00:41.921Z,101535
2018-05-04T19:03:15.821Z,101544
2018-05-04T19:05:44.916Z,101542
2018-05-04T19:08:13.831Z,101542
2018-05-04T19:10:42.933Z,101543
2018-05-04T19:13:12.047Z,101550
2018-05-04T19:15:41.764Z,101566
2018-05-04T19:18:14.244Z,101564
2018-05-04T19:20:45.385Z,101555
2018-05-04T19:23:13.607Z,101563
2018-05-04T19:25:41.939Z,101567
2018-05-04T19:28:10.740Z,101567
2018-05-04T19:30:42.737Z,101568
2018-05-04T19:33:11.620Z,101584
2018-05-04T19:35:41.640Z,101578
2018-05-04T19:38:12.176Z,101578
2018-05-04T19:40:42.239Z,101580
2018-05-04T19:43:11.292Z,101593
2018-05-04T19:45:41.096Z,101591
2018-05-04T19:48:09.984Z,101598
2018-05-04T19:50:39.677Z,101595
2018-05-04T19:53:11.559Z,101603
2018-05-04T19:55:41.155Z,101603
2018-05-04T19:58:10.031Z,101608
2018-05-04T20:00:39.718Z,101601
2018-05-04T20:03:12.815Z,101619
2018-05-04T20:05:46.421Z,101605
2018-05-04T20:08:17.162Z,101613
2018-05-04T20:10:48.036Z,101597
2018-05-04T20:13:17.981Z,101607
2018-05-04T20:15:47.841Z,101602
2018-05-04T20:18:18.898Z,101603
2018-05-04T20:20:48.541Z,101601
2018-05-04T20:23:17.108Z,101608
2018-05-04T20:25:46.684Z,101607
2018-05-04T20:28:15.540Z,101612
2018-05-04T20:30:47.230Z,101614
2018-05-04T20:33:20.721Z,101609
2018-05-04T20:35:55.943Z,101615
2018-05-04T20:38:25.029Z,101606
2018-05-04T20:40:57.421Z,101604
2018-05-04T20:43:27.173Z,101618
2018-05-04T20:46:07.573Z,101616
2018-05-04T20:48:38.522Z,101618
2018-05-04T20:51:08.056Z,101626
2018-05-04T20:53:43.056Z,101624
2018-05-04T20:58:47.037Z,101633
2018-05-04T21:01:20.267Z,101624
2018-05-04T21:03:49.843Z,101620
2018-05-04T21:06:21.395Z,101623
2018-05-04T21:08:59.544Z,101619
2018-05-04T21:11:31.561Z,101614
2018-05-04T21:14:03.496Z,101621
2018-05-04T21:16:35.669Z,101630
2018-05-04T21:19:04.720Z,101626
2018-05-04T21:21:35.083Z,101627
2018-05-04T21:24:03.342Z,101627
2018-05-04T21:26:32.357Z,101617
2018-05-04T21:29:02.321Z,101618
2018-05-04T21:31:37.732Z,101621
2018-05-04T21:34:09.110Z,101619
2018-05-04T21:36:45.112Z,101621
2018-05-04T21:39:16.970Z,101620
2018-05-04T21:41:45.860Z,101618
2018-05-04T21:44:14.952Z,101619
2018-05-04T21:46:43.848Z,101633
2018-05-04T21:49:12.072Z,101634
2018-05-04T21:51:40.184Z,101629
2018-05-04T21:54:08.996Z,101626
2018-05-04T21:56:37.597Z,101633
2018-05-04T21:59:06.421Z,101625
2018-05-04T22:01:35.192Z,101621
2018-05-04T22:04:03.287Z,101626
2018-05-04T22:06:33.341Z,101624
2018-05-04T22:09:03.586Z,101623
2018-05-04T22:11:33.359Z,101623
2018-05-04T22:14:01.791Z,101628
2018-05-04T22:16:30.155Z,101635
2018-05-04T22:18:58.927Z,101630
2018-05-04T22:21:27.921Z,101633
2018-05-04T22:23:56.862Z,101634
2018-05-04T22:26:26.634Z,101634
2018-05-04T22:28:54.884Z,101640
2018-05-04T22:31:23.899Z,101641
2018-05-04T22:33:54.403Z,101643
2018-05-04T22:36:22.487Z,101651
2018-05-04T22:38:51.580Z,101648
2018-05-04T22:41:19.755Z,101651
2018-05-04T22:43:48.737Z,101652
2018-05-04T22:46:17.702Z,101656
2018-05-04T22:48:46.693Z,101654
2018-05-04T22:51:15.631Z,101656
2018-05-04T22:53:44.540Z,101665
2018-05-04T22:56:13.332Z,101658
2018-05-04T22:58:41.422Z,101661
2018-05-04T23:01:12.372Z,101659
2018-05-04T23:03:41.828Z,101670
2018-05-04T23:06:11.001Z,101667
2018-05-04T23:08:39.744Z,101663
2018-05-04T23:11:08.624Z,101667
2018-05-04T23:13:36.957Z,101665
2018-05-04T23:16:05.284Z,101668
2018-05-04T23:18:34.156Z,101660
2018-05-04T23:21:03.535Z,101665
2018-05-04T23:23:32.259Z,101669
2018-05-04T23:26:01.323Z,101665
2018-05-04T23:28:29.926Z,101668
2018-05-04T23:30:58.825Z,101666
2018-05-04T23:33:27.699Z,101669
2018-05-04T23:35:56.588Z,101666
2018-05-04T23:38:25.813Z,101656
2018-05-04T23:40:54.020Z,101669
2018-05-04T23:43:26.512Z,101669
2018-05-04T23:45:55.324Z,101673
2018-05-04T23:48:26.836Z,101670
2018-05-04T23:50:55.679Z,101678
2018-05-04T23:53:24.664Z,101682
2018-05-04T23:55:55.946Z,101682
2018-05-04T23:58:24.024Z,101682
